createdAt,value
2024-01-12T00:02:14.700Z,45.77
2024-01-12T00:05:01.616Z,51.83
2024-01-12T00:07:48.533Z,53.03
2024-01-12T00:10:35.406Z,51.77
2024-01-12T00:13:23.835Z,49.03
2024-01-12T00:16:10.685Z,54.83
2024-01-12T00:18:57.695Z,50.63
2024-01-12T00:21:45.101Z,47.57
2024-01-12T00:24:32.038Z,48.77
2024-01-12T00:27:18.881Z,48.27
2024-01-12T00:30:07.498Z,46.00
2024-01-12T00:32:54.525Z,49.77
2024-01-12T00:35:41.668Z,53.37
2024-01-12T00:38:28.526Z,49.77
2024-01-12T00:41:16.066Z,49.83
2024-01-12T00:44:03.160Z,43.90
2024-01-12T00:46:52.296Z,50.67
2024-01-12T00:49:39.636Z,49.20
2024-01-12T00:52:26.445Z,50.90
2024-01-12T00:55:13.309Z,49.60
2024-01-12T00:58:00.163Z,47.57
2024-01-12T01:00:47.165Z,46.27
2024-01-12T01:03:34.109Z,45.40
2024-01-12T01:06:21.683Z,47.47
2024-01-12T01:09:08.529Z,49.13
2024-01-12T01:11:55.448Z,45.83
2024-01-12T01:14:42.342Z,42.30
2024-01-12T01:17:29.409Z,53.07
2024-01-12T01:20:17.524Z,41.33
2024-01-12T01:23:04.986Z,46.43
2024-01-12T01:25:52.068Z,47.73
2024-01-12T01:28:38.972Z,45.63
2024-01-12T01:31:25.963Z,42.43
2024-01-12T01:34:12.993Z,41.43
2024-01-12T01:37:03.996Z,46.77
2024-01-12T01:39:51.828Z,43.77
2024-01-12T01:42:40.364Z,41.30
2024-01-12T01:45:27.412Z,47.03
2024-01-12T01:48:14.308Z,43.33
2024-01-12T01:51:01.220Z,39.70
2024-01-12T01:53:48.529Z,37.40
2024-01-12T01:56:37.125Z,46.87
2024-01-12T01:59:24.035Z,41.40
2024-01-12T02:02:11.143Z,40.43
2024-01-12T02:04:58.870Z,40.70
2024-01-12T02:07:45.773Z,42.00
2024-01-12T02:10:32.545Z,42.00
2024-01-12T02:13:22.981Z,45.53
2024-01-12T02:16:10.168Z,43.97
2024-01-12T02:18:57.147Z,41.80
2024-01-12T02:21:44.051Z,43.97
2024-01-12T02:24:30.851Z,48.07
2024-01-12T02:27:17.703Z,46.03
2024-01-12T02:30:05.432Z,45.03
2024-01-12T02:32:52.546Z,48.13
2024-01-12T02:35:39.566Z,46.60
2024-01-12T02:38:26.522Z,49.63
2024-01-12T02:41:13.455Z,47.73
2024-01-12T02:44:00.290Z,43.10
2024-01-12T02:46:47.087Z,44.07
2024-01-12T02:49:34.035Z,49.13
2024-01-12T02:52:20.968Z,48.47
2024-01-12T02:55:08.035Z,47.07
2024-01-12T02:57:55.138Z,47.03
2024-01-12T03:00:42.014Z,43.50
2024-01-12T03:03:28.991Z,46.00
2024-01-12T03:06:15.941Z,45.93
2024-01-12T03:09:02.930Z,48.57
2024-01-12T03:11:49.769Z,49.47
2024-01-12T03:14:36.669Z,49.00
2024-01-12T03:17:23.721Z,46.80
2024-01-12T03:20:10.859Z,43.43
2024-01-12T03:22:57.821Z,51.77
2024-01-12T03:25:44.895Z,49.70
2024-01-12T03:28:31.701Z,50.00
2024-01-12T03:31:20.735Z,45.93
2024-01-12T03:34:07.731Z,47.00
2024-01-12T03:36:54.885Z,46.43
2024-01-12T03:39:41.710Z,47.47
2024-01-12T03:42:28.682Z,49.77
2024-01-12T03:45:15.838Z,51.53
2024-01-12T03:48:02.824Z,49.83
2024-01-12T03:50:49.727Z,47.93
2024-01-12T03:53:36.575Z,46.87
2024-01-12T03:56:23.351Z,51.13
2024-01-12T03:59:11.832Z,50.87
2024-01-12T04:01:58.578Z,46.47
2024-01-12T04:04:45.593Z,47.13
2024-01-12T04:07:32.418Z,55.77
2024-01-12T04:10:19.530Z,51.80
2024-01-12T04:13:06.344Z,47.63
2024-01-12T04:15:54.385Z,49.37
2024-01-12T04:18:41.360Z,56.47
2024-01-12T04:21:28.542Z,52.00
2024-01-12T04:24:15.381Z,54.47
2024-01-12T04:27:02.332Z,56.17
2024-01-12T04:29:49.239Z,53.40
2024-01-12T04:32:36.810Z,55.03
2024-01-12T04:35:23.715Z,62.77
2024-01-12T04:38:11.927Z,63.87
2024-01-12T04:40:58.661Z,59.60
2024-01-12T04:43:45.546Z,67.40
2024-01-12T04:46:32.349Z,61.60
2024-01-12T04:49:19.315Z,60.47
2024-01-12T04:52:06.468Z,60.57
2024-01-12T04:54:53.312Z,66.30
2024-01-12T04:57:40.070Z,66.53
2024-01-12T05:00:27.146Z,64.73
2024-01-12T05:03:15.780Z,66.07
2024-01-12T05:06:04.143Z,75.23
2024-01-12T05:08:51.506Z,72.00
2024-01-12T05:11:38.537Z,63.63
2024-01-12T05:14:25.453Z,61.97
2024-01-12T05:17:12.444Z,69.23
2024-01-12T05:20:01.058Z,68.83
2024-01-12T05:22:47.929Z,74.57
2024-01-12T05:25:34.739Z,64.90
2024-01-12T05:28:21.615Z,69.27
2024-01-12T05:31:11.598Z,71.73
2024-01-12T05:33:58.666Z,64.63
2024-01-12T05:36:45.527Z,69.47
2024-01-12T05:39:32.416Z,69.33
2024-01-12T05:42:19.294Z,68.27
2024-01-12T05:45:07.010Z,64.87
2024-01-12T05:48:06.721Z,61.50
2024-01-12T05:50:53.576Z,67.20
2024-01-12T05:53:40.604Z,62.23
2024-01-12T05:56:27.871Z,72.90
2024-01-12T05:59:15.061Z,68.47
2024-01-12T06:02:01.930Z,68.53
2024-01-12T06:04:48.843Z,67.77
2024-01-12T06:07:35.912Z,70.83
2024-01-12T06:10:22.815Z,62.60
2024-01-12T06:13:10.014Z,63.77
2024-01-12T06:15:57.753Z,63.77
2024-01-12T06:18:44.890Z,75.57
2024-01-12T06:21:31.969Z,72.80
2024-01-12T06:24:18.830Z,75.27
2024-01-12T06:27:06.954Z,82.20
2024-01-12T06:29:54.285Z,75.03
2024-01-12T06:32:41.309Z,78.70
2024-01-12T06:35:28.246Z,81.03
2024-01-12T06:38:15.360Z,73.37
2024-01-12T06:41:03.812Z,70.63
2024-01-12T06:43:50.908Z,75.53
2024-01-12T06:46:45.276Z,75.53
2024-01-12T06:49:32.722Z,70.37
2024-01-12T06:52:19.730Z,66.23
2024-01-12T06:55:07.169Z,71.00
2024-01-12T06:57:53.994Z,71.40
2024-01-12T07:00:40.871Z,69.00
2024-01-12T07:03:27.782Z,65.60
2024-01-12T07:06:15.467Z,71.43
2024-01-12T07:09:02.466Z,63.57
2024-01-12T07:11:50.104Z,73.00
2024-01-12T07:14:36.989Z,70.50
2024-01-12T07:17:24.185Z,71.63
2024-01-12T07:20:12.400Z,72.77
2024-01-12T07:22:59.311Z,71.60
2024-01-12T07:25:46.124Z,68.70
2024-01-12T07:28:32.965Z,69.70
2024-01-12T07:31:19.893Z,70.73
2024-01-12T07:34:07.084Z,68.67
2024-01-12T07:36:54.074Z,64.50
2024-01-12T07:39:41.171Z,64.90
2024-01-12T07:42:28.013Z,66.63
2024-01-12T07:45:15.204Z,62.60
2024-01-12T07:48:02.620Z,69.63
2024-01-12T07:50:50.248Z,67.93
2024-01-12T07:53:37.093Z,67.10
2024-01-12T07:56:24.078Z,65.07
2024-01-12T07:59:11.004Z,72.13
2024-01-12T08:01:57.862Z,66.17
2024-01-12T08:04:44.837Z,67.30
2024-01-12T08:07:31.814Z,62.37
2024-01-12T08:10:19.350Z,63.07
2024-01-12T08:13:06.422Z,64.87
2024-01-12T08:15:53.216Z,65.90
2024-01-12T08:18:40.341Z,69.20
2024-01-12T08:21:27.858Z,67.77
2024-01-12T08:24:17.652Z,70.57
2024-01-12T08:27:04.826Z,62.97
2024-01-12T08:29:51.999Z,65.50
2024-01-12T08:32:41.264Z,66.23
2024-01-12T08:35:30.013Z,69.00
2024-01-12T08:38:16.816Z,64.00
2024-01-12T08:41:03.763Z,62.37
2024-01-12T08:43:54.106Z,66.00
2024-01-12T08:46:41.003Z,67.13
2024-01-12T08:49:27.947Z,65.07
2024-01-12T08:52:15.564Z,67.40
2024-01-12T08:55:04.269Z,66.97
2024-01-12T08:57:53.443Z,68.60
2024-01-12T09:00:40.538Z,64.07
2024-01-12T09:03:29.286Z,70.43
2024-01-12T09:06:16.471Z,62.97
2024-01-12T09:09:04.344Z,65.53
2024-01-12T09:11:51.552Z,62.63
2024-01-12T09:14:38.425Z,73.37
2024-01-12T09:17:25.385Z,68.07
2024-01-12T09:20:12.535Z,64.90
2024-01-12T09:23:00.026Z,71.07
2024-01-12T09:25:49.313Z,67.60
2024-01-12T09:28:38.298Z,66.30
2024-01-12T09:31:25.295Z,70.63
2024-01-12T09:34:12.462Z,71.30
2024-01-12T09:36:59.423Z,71.40
2024-01-12T09:39:46.468Z,63.80
2024-01-12T09:42:33.699Z,67.27
2024-01-12T09:45:23.988Z,70.70
2024-01-12T09:48:13.139Z,66.90
2024-01-12T09:51:00.220Z,70.30
2024-01-12T09:53:47.208Z,70.07
2024-01-12T09:56:39.915Z,68.07
2024-01-12T09:59:32.569Z,63.63
2024-01-12T10:02:19.648Z,67.60
2024-01-12T10:05:08.153Z,65.20
2024-01-12T10:07:55.036Z,62.73
2024-01-12T10:10:41.880Z,66.13
2024-01-12T10:13:29.896Z,64.00
2024-01-12T10:16:19.690Z,70.90
2024-01-12T10:19:06.841Z,67.07
2024-01-12T10:21:54.164Z,68.97
2024-01-12T10:24:41.316Z,71.87
2024-01-12T10:27:28.389Z,64.53
2024-01-12T10:30:15.991Z,67.30
2024-01-12T10:33:03.081Z,70.80
2024-01-12T10:36:00.469Z,68.20
2024-01-12T10:38:47.499Z,64.80
2024-01-12T10:41:34.546Z,63.07
2024-01-12T10:44:22.377Z,70.33
2024-01-12T10:47:18.227Z,68.03
2024-01-12T10:50:06.908Z,67.73
2024-01-12T10:53:21.876Z,69.60
2024-01-12T10:56:08.704Z,66.80
2024-01-12T10:58:55.848Z,70.27
2024-01-12T11:01:42.665Z,69.20
2024-01-12T11:04:30.321Z,70.67
2024-01-12T11:07:17.314Z,72.70
2024-01-12T11:10:04.617Z,67.53
2024-01-12T11:12:53.663Z,63.47
2024-01-12T11:15:44.897Z,74.37
2024-01-12T11:18:34.340Z,72.77
2024-01-12T11:21:26.376Z,72.83
2024-01-12T11:24:13.736Z,69.80
2024-01-12T11:27:00.935Z,64.43
2024-01-12T11:29:48.823Z,67.73
2024-01-12T11:32:35.888Z,71.03
2024-01-12T11:35:23.484Z,65.57
2024-01-12T11:38:11.525Z,70.03
2024-01-12T11:40:58.415Z,74.23
2024-01-12T11:43:49.072Z,70.07
2024-01-12T11:46:36.008Z,70.93
2024-01-12T11:49:23.885Z,72.50
2024-01-12T11:52:10.864Z,64.80
2024-01-12T11:54:57.811Z,72.93
2024-01-12T11:57:44.576Z,69.70
2024-01-12T12:00:31.613Z,68.10
2024-01-12T12:03:18.549Z,63.30
2024-01-12T12:06:06.593Z,72.07
2024-01-12T12:08:57.039Z,67.77
2024-01-12T12:11:44.210Z,74.27
2024-01-12T12:14:31.158Z,65.80
2024-01-12T12:17:18.760Z,66.67
2024-01-12T12:20:06.578Z,69.57
2024-01-12T12:22:54.715Z,58.60
2024-01-12T12:25:41.742Z,69.17
2024-01-12T12:28:28.860Z,71.77
2024-01-12T12:31:16.797Z,67.17
2024-01-12T12:34:04.499Z,66.37
2024-01-12T12:36:51.842Z,69.00
2024-01-12T12:39:38.845Z,66.00
2024-01-12T12:42:25.809Z,62.07
2024-01-12T12:45:13.013Z,65.07
2024-01-12T12:48:00.483Z,65.07
2024-01-12T12:50:47.706Z,60.40
2024-01-12T12:53:34.695Z,68.47
2024-01-12T12:56:21.563Z,66.73
2024-01-12T12:59:08.441Z,60.67
2024-01-12T13:01:55.682Z,65.40
2024-01-12T13:04:42.473Z,70.07
2024-01-12T13:07:30.033Z,73.87
2024-01-12T13:10:16.952Z,68.63
2024-01-12T13:13:05.019Z,65.80
2024-01-12T13:15:51.801Z,60.37
2024-01-12T13:18:39.009Z,63.33
2024-01-12T13:21:26.051Z,64.13
2024-01-12T13:24:13.310Z,68.40
2024-01-12T13:27:00.430Z,69.80
2024-01-12T13:29:47.538Z,69.17
2024-01-12T13:32:34.596Z,62.37
2024-01-12T13:35:22.608Z,61.33
2024-01-12T13:38:09.664Z,63.77
2024-01-12T13:40:57.463Z,61.00
2024-01-12T13:43:44.364Z,66.60
2024-01-12T13:46:31.531Z,60.53
2024-01-12T13:49:18.735Z,65.37
2024-01-12T13:52:05.719Z,58.10
2024-01-12T13:54:52.517Z,58.87
2024-01-12T13:57:39.563Z,59.83
2024-01-12T14:00:26.555Z,60.10
2024-01-12T14:03:13.966Z,60.30
2024-01-12T14:06:00.958Z,56.17
2024-01-12T14:08:48.467Z,54.77
2024-01-12T14:11:35.551Z,59.53
2024-01-12T14:14:22.710Z,58.23
2024-01-12T14:17:09.539Z,54.30
2024-01-12T14:19:56.598Z,60.77
2024-01-12T14:22:43.578Z,62.30
2024-01-12T14:25:30.928Z,58.87
2024-01-12T14:28:24.387Z,56.03
2024-01-12T14:31:19.296Z,58.93
2024-01-12T14:34:06.539Z,57.87
2024-01-12T14:36:53.636Z,62.17
2024-01-12T14:39:40.450Z,56.93
2024-01-12T14:42:27.847Z,59.93
2024-01-12T14:45:14.699Z,64.30
2024-01-12T14:48:08.811Z,64.37
2024-01-12T14:50:58.141Z,72.13
2024-01-12T14:53:45.210Z,64.53
2024-01-12T14:56:32.132Z,64.00
2024-01-12T14:59:19.012Z,69.30
2024-01-12T15:02:05.815Z,73.20
2024-01-12T15:04:52.660Z,68.70
2024-01-12T15:07:41.025Z,79.67
2024-01-12T15:10:27.877Z,69.27
2024-01-12T15:13:15.163Z,71.00
2024-01-12T15:16:02.064Z,65.27
2024-01-12T15:18:49.481Z,74.57
2024-01-12T15:21:36.352Z,82.33
2024-01-12T15:24:23.682Z,77.10
2024-01-12T15:27:10.601Z,77.37
2024-01-12T15:29:57.563Z,74.83
2024-01-12T15:32:44.501Z,71.80
2024-01-12T15:35:31.728Z,68.80
2024-01-12T15:38:18.538Z,75.30
2024-01-12T15:41:05.833Z,80.07
2024-01-12T15:43:52.592Z,78.73
2024-01-12T15:46:39.692Z,82.13
2024-01-12T15:49:27.063Z,78.53
2024-01-12T15:52:14.597Z,83.93
2024-01-12T15:55:01.355Z,79.47
2024-01-12T15:57:48.220Z,79.17
2024-01-12T16:00:35.024Z,77.07
2024-01-12T16:03:23.195Z,80.80
2024-01-12T16:06:10.419Z,80.90
2024-01-12T16:08:58.597Z,78.07
2024-01-12T16:11:45.490Z,81.33
2024-01-12T16:14:39.115Z,76.90
2024-01-12T16:17:26.023Z,81.00
2024-01-12T16:20:13.148Z,83.83
2024-01-12T16:23:00.158Z,75.63
2024-01-12T16:25:47.258Z,82.03
2024-01-12T16:28:34.031Z,78.30
2024-01-12T16:31:21.015Z,77.00
2024-01-12T16:34:08.138Z,76.97
2024-01-12T16:36:55.222Z,79.50
2024-01-12T16:39:43.299Z,82.23
2024-01-12T16:42:30.243Z,72.27
2024-01-12T16:45:17.157Z,91.20
2024-01-12T16:48:04.816Z,94.87
2024-01-12T16:50:51.909Z,79.73
2024-01-12T16:53:38.974Z,78.53
2024-01-12T16:56:25.848Z,75.47
2024-01-12T16:59:13.346Z,76.10
2024-01-12T17:02:01.455Z,77.50
2024-01-12T17:04:48.407Z,78.03
2024-01-12T17:07:35.338Z,73.93
2024-01-12T17:10:22.354Z,74.50
2024-01-12T17:13:09.656Z,73.20
2024-01-12T17:15:56.651Z,72.67
2024-01-12T17:18:43.891Z,71.73
2024-01-12T17:21:31.031Z,73.33
2024-01-12T17:24:18.083Z,76.20
2024-01-12T17:27:05.009Z,65.53
2024-01-12T17:29:52.154Z,69.63
2024-01-12T17:32:39.240Z,70.60
2024-01-12T17:35:26.467Z,61.30
2024-01-12T17:38:13.393Z,70.30
2024-01-12T17:41:00.632Z,67.30
2024-01-12T17:43:47.657Z,73.40
2024-01-12T17:46:34.429Z,68.50
2024-01-12T17:49:22.011Z,62.70
2024-01-12T17:52:09.186Z,62.73
2024-01-12T17:54:56.737Z,65.57
2024-01-12T17:57:43.968Z,68.50
2024-01-12T18:00:31.018Z,68.83
2024-01-12T18:03:17.903Z,65.03
2024-01-12T18:06:05.232Z,67.37
2024-01-12T18:08:53.212Z,65.73
2024-01-12T18:11:40.931Z,62.47
2024-01-12T18:14:27.983Z,59.90
2024-01-12T18:17:14.937Z,67.20
2024-01-12T18:20:01.835Z,62.57
2024-01-12T18:22:48.868Z,67.57
2024-01-12T18:25:35.926Z,56.50
2024-01-12T18:28:23.027Z,64.53
2024-01-12T18:31:09.934Z,55.63
2024-01-12T18:33:57.106Z,54.87
2024-01-12T18:36:44.091Z,48.70
2024-01-12T18:39:31.140Z,50.80
2024-01-12T18:42:18.120Z,45.50
2024-01-12T18:45:05.395Z,49.63
2024-01-12T18:47:52.380Z,51.70
2024-01-12T18:50:39.525Z,52.37
2024-01-12T18:53:26.627Z,50.80
2024-01-12T18:56:13.634Z,47.90
2024-01-12T18:59:00.408Z,51.80
2024-01-12T19:01:48.841Z,47.27
2024-01-12T19:04:35.631Z,42.63
2024-01-12T19:07:22.783Z,45.20
2024-01-12T19:10:09.903Z,50.40
2024-01-12T19:12:56.996Z,45.57
2024-01-12T19:15:43.770Z,48.33
2024-01-12T19:18:30.968Z,48.23
2024-01-12T19:21:18.045Z,43.60
2024-01-12T19:24:05.397Z,45.57
2024-01-12T19:26:52.379Z,41.20
2024-01-12T19:29:39.581Z,46.13
2024-01-12T19:32:27.867Z,40.03
2024-01-12T19:35:14.992Z,45.73
2024-01-12T19:38:01.883Z,39.67
2024-01-12T19:40:48.804Z,44.23
2024-01-12T19:43:35.588Z,43.67
2024-01-12T19:46:22.518Z,42.90
2024-01-12T19:49:09.440Z,41.63
2024-01-12T19:51:56.456Z,43.40
2024-01-12T19:54:43.259Z,38.90
2024-01-12T19:57:30.122Z,55.30
2024-01-12T20:00:18.272Z,43.70
2024-01-12T20:03:05.847Z,43.67
2024-01-12T20:05:52.711Z,46.40
2024-01-12T20:08:39.722Z,51.73
2024-01-12T20:11:27.170Z,45.47
2024-01-12T20:14:14.249Z,40.70
2024-01-12T20:17:01.324Z,41.60
2024-01-12T20:19:48.264Z,48.73
2024-01-12T20:22:36.053Z,43.00
2024-01-12T20:25:22.885Z,38.40
2024-01-12T20:28:12.442Z,40.97
2024-01-12T20:31:00.029Z,41.17
2024-01-12T20:33:47.436Z,44.03
2024-01-12T20:36:35.932Z,48.17
2024-01-12T20:39:22.980Z,42.57
2024-01-12T20:42:11.299Z,40.37
2024-01-12T20:44:58.698Z,43.13
2024-01-12T20:47:45.759Z,45.50
2024-01-12T20:50:32.676Z,43.03
2024-01-12T20:53:19.635Z,46.50
2024-01-12T20:56:07.744Z,43.00
2024-01-12T20:58:55.869Z,41.63
2024-01-12T21:01:42.910Z,44.20
2024-01-12T21:04:29.893Z,39.00
2024-01-12T21:07:16.745Z,38.40
2024-01-12T21:10:05.327Z,39.10
2024-01-12T21:12:52.349Z,40.00
2024-01-12T21:15:39.267Z,36.53
2024-01-12T21:18:26.149Z,40.10
2024-01-12T21:21:13.237Z,40.47
2024-01-12T21:24:00.164Z,42.97
2024-01-12T21:26:47.224Z,41.80
2024-01-12T21:29:34.186Z,43.37
2024-01-12T21:32:21.098Z,41.37
2024-01-12T21:35:08.335Z,37.20
2024-01-12T21:37:55.802Z,43.17
2024-01-12T21:40:42.687Z,43.27
2024-01-12T21:43:29.556Z,39.90
2024-01-12T21:46:16.474Z,47.23
2024-01-12T21:49:03.535Z,39.33
2024-01-12T21:51:50.594Z,44.67
2024-01-12T21:54:37.446Z,37.17
2024-01-12T21:57:24.283Z,45.70
2024-01-12T22:00:13.126Z,50.87
2024-01-12T22:03:00.548Z,48.80
2024-01-12T22:05:47.628Z,47.30
2024-01-12T22:08:34.574Z,54.80
2024-01-12T22:11:21.381Z,51.17
2024-01-12T22:14:09.045Z,48.13
2024-01-12T22:16:56.054Z,55.47
2024-01-12T22:19:43.239Z,57.07
2024-01-12T22:22:30.066Z,55.47
2024-01-12T22:25:16.940Z,51.50
2024-01-12T22:28:03.939Z,51.67
2024-01-12T22:30:50.846Z,50.93
2024-01-12T22:33:37.813Z,55.67
2024-01-12T22:36:24.977Z,51.00
2024-01-12T22:39:11.780Z,50.03
2024-01-12T22:41:58.717Z,57.43
2024-01-12T22:44:45.553Z,56.27
2024-01-12T22:47:34.098Z,49.40
2024-01-12T22:50:20.988Z,58.43
2024-01-12T22:53:08.175Z,47.40
2024-01-12T22:55:55.296Z,48.80
2024-01-12T22:58:42.343Z,54.80
2024-01-12T23:01:29.348Z,60.53
2024-01-12T23:04:16.420Z,57.80
2024-01-12T23:07:03.180Z,49.53
2024-01-12T23:09:54.009Z,54.77
2024-01-12T23:12:41.233Z,57.03
2024-01-12T23:15:28.057Z,57.00
2024-01-12T23:18:15.235Z,48.07
2024-01-12T23:21:02.205Z,52.47
2024-01-12T23:23:49.458Z,49.23
2024-01-12T23:26:36.825Z,50.30
2024-01-12T23:29:25.734Z,51.50
2024-01-12T23:32:14.426Z,49.07
2024-01-12T23:35:01.428Z,51.27
2024-01-12T23:37:48.525Z,45.07
2024-01-12T23:40:35.631Z,44.73
2024-01-12T23:43:22.622Z,45.43
2024-01-12T23:46:09.596Z,42.20
2024-01-12T23:48:56.845Z,42.67
2024-01-12T23:51:43.913Z,39.70
2024-01-12T23:54:31.843Z,42.27
2024-01-12T23:57:18.796Z,38.80
